sensor_id;sensor_type;location;lat;lon;timestamp;pressure;altitude;pressure_sealevel;temperature;humidity
53889;BME280;41337;51.400;-2.342;2022-12-20T00:01:22;99578.97;;;11.88;100.00
53889;BME280;41337;51.400;-2.342;2022-12-20T00:06:27;99585.16;;;11.83;100.00
53889;BME280;41337;51.400;-2.342;2022-12-20T00:11:29;99576.50;;;11.82;100.00
53889;BME280;41337;51.400;-2.342;2022-12-20T00:16:29;99563.38;;;11.85;100.00
53889;BME280;41337;51.400;-2.342;2022-12-20T00:21:32;99546.00;;;11.84;100.00
53889;BME280;41337;51.400;-2.342;2022-12-20T00:26:37;99532.06;;;11.85;100.00
53889;BME280;41337;51.400;-2.342;2022-12-20T00:31:38;99538.22;;;11.81;100.00
53889;BME280;41337;51.400;-2.342;2022-12-20T00:36:39;99542.50;;;11.85;100.00
53889;BME280;41337;51.400;-2.342;2022-12-20T00:41:40;99545.94;;;11.87;100.00
53889;BME280;41337;51.400;-2.342;2022-12-20T00:46:41;99532.84;;;11.89;100.00
53889;BME280;41337;51.400;-2.342;2022-12-20T00:51:41;99533.66;;;11.92;100.00
53889;BME280;41337;51.400;-2.342;2022-12-20T00:56:42;99524.91;;;11.95;100.00
53889;BME280;41337;51.400;-2.342;2022-12-20T01:01:43;99517.06;;;11.95;100.00
53889;BME280;41337;51.400;-2.342;2022-12-20T01:06:50;99524.88;;;11.97;100.00
53889;BME280;41337;51.400;-2.342;2022-12-20T01:11:51;99512.75;;;11.94;100.00
53889;BME280;41337;51.400;-2.342;2022-12-20T01:16:52;99519.72;;;11.93;100.00
53889;BME280;41337;51.400;-2.342;2022-12-20T01:21:52;99488.50;;;11.87;100.00
53889;BME280;41337;51.400;-2.342;2022-12-20T01:26:53;99489.38;;;11.86;100.00
53889;BME280;41337;51.400;-2.342;2022-12-20T01:31:54;99478.09;;;11.86;100.00
53889;BME280;41337;51.400;-2.342;2022-12-20T01:37:03;99471.06;;;11.89;100.00
53889;BME280;41337;51.400;-2.342;2022-12-20T01:42:04;99454.44;;;11.95;100.00
53889;BME280;41337;51.400;-2.342;2022-12-20T01:47:12;99451.78;;;11.97;100.00
53889;BME280;41337;51.400;-2.342;2022-12-20T01:52:22;99444.00;;;11.95;100.00
53889;BME280;41337;51.400;-2.342;2022-12-20T01:57:36;99426.47;;;12.00;100.00
53889;BME280;41337;51.400;-2.342;2022-12-20T02:02:40;99429.88;;;12.02;100.00
53889;BME280;41337;51.400;-2.342;2022-12-20T02:07:46;99429.88;;;12.02;100.00
53889;BME280;41337;51.400;-2.342;2022-12-20T02:12:58;99412.56;;;11.98;100.00
53889;BME280;41337;51.400;-2.342;2022-12-20T02:18:21;99400.41;;;11.99;100.00
53889;BME280;41337;51.400;-2.342;2022-12-20T02:23:42;99384.69;;;12.00;100.00
53889;BME280;41337;51.400;-2.342;2022-12-20T02:34:26;99399.31;;;12.06;100.00
53889;BME280;41337;51.400;-2.342;2022-12-20T02:39:30;99387.19;;;12.05;100.00
53889;BME280;41337;51.400;-2.342;2022-12-20T02:44:40;99374.16;;;12.03;100.00
53889;BME280;41337;51.400;-2.342;2022-12-20T02:50:06;99360.25;;;12.03;100.00
53889;BME280;41337;51.400;-2.342;2022-12-20T02:55:07;99510.56;;;11.74;100.00
53889;BME280;41337;51.400;-2.342;2022-12-20T03:00:10;99569.19;;;11.17;100.00
53889;BME280;41337;51.400;-2.342;2022-12-20T03:05:13;99618.53;;;10.79;100.00
53889;BME280;41337;51.400;-2.342;2022-12-20T03:10:16;99636.50;;;10.43;100.00
53889;BME280;41337;51.400;-2.342;2022-12-20T03:15:17;99620.56;;;10.06;100.00
53889;BME280;41337;51.400;-2.342;2022-12-20T03:20:24;99620.97;;;9.77;100.00
53889;BME280;41337;51.400;-2.342;2022-12-20T03:25:25;99634.22;;;9.60;100.00
53889;BME280;41337;51.400;-2.342;2022-12-20T03:30:26;99625.78;;;9.37;100.00
53889;BME280;41337;51.400;-2.342;2022-12-20T03:35:27;99624.28;;;9.18;100.00
53889;BME280;41337;51.400;-2.342;2022-12-20T03:40:28;99620.97;;;9.04;100.00
53889;BME280;41337;51.400;-2.342;2022-12-20T03:45:28;99624.53;;;8.95;100.00
53889;BME280;41337;51.400;-2.342;2022-12-20T03:50:35;99641.00;;;8.91;100.00
53889;BME280;41337;51.400;-2.342;2022-12-20T03:55:36;99652.28;;;8.90;100.00
53889;BME280;41337;51.400;-2.342;2022-12-20T04:00:37;99666.19;;;8.84;100.00
53889;BME280;41337;51.400;-2.342;2022-12-20T04:05:44;99651.56;;;8.75;100.00
53889;BME280;41337;51.400;-2.342;2022-12-20T04:10:45;99655.91;;;8.75;100.00
53889;BME280;41337;51.400;-2.342;2022-12-20T04:16:04;99647.25;;;8.71;100.00
53889;BME280;41337;51.400;-2.342;2022-12-20T04:21:05;99641.22;;;8.69;100.00
53889;BME280;41337;51.400;-2.342;2022-12-20T04:26:12;99644.72;;;8.67;100.00
53889;BME280;41337;51.400;-2.342;2022-12-20T04:31:13;99673.31;;;8.63;100.00
53889;BME280;41337;51.400;-2.342;2022-12-20T04:36:14;99686.31;;;8.57;100.00
53889;BME280;41337;51.400;-2.342;2022-12-20T04:41:15;99701.09;;;8.48;100.00
53889;BME280;41337;51.400;-2.342;2022-12-20T04:46:25;99714.09;;;8.37;100.00
53889;BME280;41337;51.400;-2.342;2022-12-20T04:51:27;99732.31;;;8.34;100.00
53889;BME280;41337;51.400;-2.342;2022-12-20T04:56:32;99727.19;;;8.21;100.00
53889;BME280;41337;51.400;-2.342;2022-12-20T05:01:33;99733.31;;;8.11;100.00
53889;BME280;41337;51.400;-2.342;2022-12-20T05:06:34;99759.28;;;8.00;100.00
53889;BME280;41337;51.400;-2.342;2022-12-20T05:11:34;99776.59;;;8.00;100.00
53889;BME280;41337;51.400;-2.342;2022-12-20T05:16:35;99780.09;;;7.89;100.00
53889;BME280;41337;51.400;-2.342;2022-12-20T05:21:36;99790.50;;;7.80;100.00
53889;BME280;41337;51.400;-2.342;2022-12-20T05:26:56;99792.22;;;7.75;100.00
53889;BME280;41337;51.400;-2.342;2022-12-20T05:31:57;99787.03;;;7.78;100.00
53889;BME280;41337;51.400;-2.342;2022-12-20T05:37:01;99807.78;;;7.74;100.00
53889;BME280;41337;51.400;-2.342;2022-12-20T05:42:02;99808.66;;;7.69;100.00
53889;BME280;41337;51.400;-2.342;2022-12-20T05:47:03;99815.56;;;7.69;100.00
53889;BME280;41337;51.400;-2.342;2022-12-20T05:52:04;99839.78;;;7.62;100.00
53889;BME280;41337;51.400;-2.342;2022-12-20T05:57:05;99842.34;;;7.65;100.00
53889;BME280;41337;51.400;-2.342;2022-12-20T06:02:06;99848.44;;;7.65;100.00
53889;BME280;41337;51.400;-2.342;2022-12-20T06:07:06;99861.38;;;7.68;100.00
53889;BME280;41337;51.400;-2.342;2022-12-20T06:12:07;99870.88;;;7.65;100.00
53889;BME280;41337;51.400;-2.342;2022-12-20T06:17:09;99877.78;;;7.63;100.00
53889;BME280;41337;51.400;-2.342;2022-12-20T06:22:15;99879.53;;;7.65;100.00
53889;BME280;41337;51.400;-2.342;2022-12-20T06:27:15;99895.94;;;7.60;100.00
53889;BME280;41337;51.400;-2.342;2022-12-20T06:32:18;99900.25;;;7.51;100.00
53889;BME280;41337;51.400;-2.342;2022-12-20T06:37:18;99913.25;;;7.44;100.00
53889;BME280;41337;51.400;-2.342;2022-12-20T06:42:19;99916.69;;;7.38;100.00
53889;BME280;41337;51.400;-2.342;2022-12-20T06:47:20;99927.03;;;7.29;100.00
53889;BME280;41337;51.400;-2.342;2022-12-20T06:52:24;99936.50;;;7.19;100.00
53889;BME280;41337;51.400;-2.342;2022-12-20T06:57:25;99955.50;;;7.13;100.00
53889;BME280;41337;51.400;-2.342;2022-12-20T07:02:26;99962.41;;;7.07;100.00
53889;BME280;41337;51.400;-2.342;2022-12-20T07:07:27;99961.53;;;7.02;100.00
53889;BME280;41337;51.400;-2.342;2022-12-20T07:12:28;99972.72;;;6.97;100.00
53889;BME280;41337;51.400;-2.342;2022-12-20T07:17:29;99978.72;;;6.86;100.00
53889;BME280;41337;51.400;-2.342;2022-12-20T07:22:29;99977.84;;;6.79;100.00
53889;BME280;41337;51.400;-2.342;2022-12-20T07:27:30;99986.41;;;6.73;100.00
53889;BME280;41337;51.400;-2.342;2022-12-20T07:32:31;99988.97;;;6.64;100.00
53889;BME280;41337;51.400;-2.342;2022-12-20T07:37:32;99988.94;;;6.55;100.00
53889;BME280;41337;51.400;-2.342;2022-12-20T07:42:39;99999.28;;;6.55;100.00
53889;BME280;41337;51.400;-2.342;2022-12-20T07:47:40;100016.47;;;6.47;100.00
53889;BME280;41337;51.400;-2.342;2022-12-20T07:52:46;100017.34;;;6.44;100.00
53889;BME280;41337;51.400;-2.342;2022-12-20T07:57:59;100033.72;;;6.41;100.00
53889;BME280;41337;51.400;-2.342;2022-12-20T08:03:17;100036.25;;;6.35;100.00
53889;BME280;41337;51.400;-2.342;2022-12-20T08:08:19;100050.03;;;6.31;100.00
53889;BME280;41337;51.400;-2.342;2022-12-20T08:13:26;100055.19;;;6.28;100.00
53889;BME280;41337;51.400;-2.342;2022-12-20T08:18:27;100059.47;;;6.26;100.00
53889;BME280;41337;51.400;-2.342;2022-12-20T08:23:28;100075.84;;;6.25;100.00
53889;BME280;41337;51.400;-2.342;2022-12-20T08:28:29;100093.94;;;6.23;100.00
53889;BME280;41337;51.400;-2.342;2022-12-20T08:33:31;100105.09;;;6.21;100.00
53889;BME280;41337;51.400;-2.342;2022-12-20T08:38:38;100109.44;;;6.20;100.00
53889;BME280;41337;51.400;-2.342;2022-12-20T08:43:40;100115.50;;;6.24;100.00
53889;BME280;41337;51.400;-2.342;2022-12-20T08:48:44;100112.03;;;6.23;100.00
53889;BME280;41337;51.400;-2.342;2022-12-20T08:53:45;100116.38;;;6.29;100.00
53889;BME280;41337;51.400;-2.342;2022-12-20T08:58:46;100107.84;;;6.36;100.00
53889;BME280;41337;51.400;-2.342;2022-12-20T09:03:47;100117.38;;;6.43;100.00
53889;BME280;41337;51.400;-2.342;2022-12-20T09:08:49;100123.53;;;6.58;100.00
53889;BME280;41337;51.400;-2.342;2022-12-20T09:13:52;100113.22;;;6.61;100.00
53889;BME280;41337;51.400;-2.342;2022-12-20T09:18:59;100116.75;;;6.72;100.00
53889;BME280;41337;51.400;-2.342;2022-12-20T09:24:00;100133.25;;;6.87;100.00
53889;BME280;41337;51.400;-2.342;2022-12-20T09:29:07;100133.31;;;7.04;100.00
53889;BME280;41337;51.400;-2.342;2022-12-20T09:34:08;100139.50;;;7.23;100.00
53889;BME280;41337;51.400;-2.342;2022-12-20T09:39:10;100150.81;;;7.46;100.00
53889;BME280;41337;51.400;-2.342;2022-12-20T09:44:26;100168.16;;;7.66;100.00
53889;BME280;41337;51.400;-2.342;2022-12-20T09:49:34;100176.00;;;7.81;100.00
53889;BME280;41337;51.400;-2.342;2022-12-20T09:59:45;100214.25;;;8.44;100.00
53889;BME280;41337;51.400;-2.342;2022-12-20T10:04:46;100232.41;;;8.56;100.00
53889;BME280;41337;51.400;-2.342;2022-12-20T10:25:41;100274.03;;;8.79;100.00
53889;BME280;41337;51.400;-2.342;2022-12-20T10:30:43;100282.69;;;9.14;100.00
53889;BME280;41337;51.400;-2.342;2022-12-20T10:35:44;100276.56;;;9.36;100.00
53889;BME280;41337;51.400;-2.342;2022-12-20T10:41:00;100278.28;;;9.54;100.00
53889;BME280;41337;51.400;-2.342;2022-12-20T10:46:08;100320.75;;;9.72;100.00
53889;BME280;41337;51.400;-2.342;2022-12-20T10:56:45;100325.94;;;9.78;100.00
53889;BME280;41337;51.400;-2.342;2022-12-20T11:01:54;100340.63;;;9.93;100.00
53889;BME280;41337;51.400;-2.342;2022-12-20T11:06:56;100337.19;;;9.91;100.00
53889;BME280;41337;51.400;-2.342;2022-12-20T11:12:14;100331.91;;;10.09;100.00
53889;BME280;41337;51.400;-2.342;2022-12-20T11:22:51;100350.06;;;10.40;100.00
53889;BME280;41337;51.400;-2.342;2022-12-20T11:39:28;100355.09;;;10.74;100.00
53889;BME280;41337;51.400;-2.342;2022-12-20T11:44:48;100358.56;;;10.73;100.00
53889;BME280;41337;51.400;-2.342;2022-12-20T12:00:14;100352.38;;;10.93;100.00
53889;BME280;41337;51.400;-2.342;2022-12-20T12:05:20;100343.69;;;10.91;100.00
53889;BME280;41337;51.400;-2.342;2022-12-20T12:10:39;100339.25;;;11.05;100.00
53889;BME280;41337;51.400;-2.342;2022-12-20T12:15:51;100330.63;;;10.95;100.00
53889;BME280;41337;51.400;-2.342;2022-12-20T12:26:16;100338.53;;;10.81;100.00
53889;BME280;41337;51.400;-2.342;2022-12-20T12:31:52;100333.16;;;11.03;100.00
53889;BME280;41337;51.400;-2.342;2022-12-20T12:37:25;100321.69;;;11.26;100.00
53889;BME280;41337;51.400;-2.342;2022-12-20T12:58:43;100340.41;;;10.59;100.00
53889;BME280;41337;51.400;-2.342;2022-12-20T13:45:42;100335.22;;;10.55;100.00
53889;BME280;41337;51.400;-2.342;2022-12-20T13:50:52;100328.34;;;10.41;100.00
53889;BME280;41337;51.400;-2.342;2022-12-20T13:55:55;100336.25;;;10.07;100.00
53889;BME280;41337;51.400;-2.342;2022-12-20T14:01:06;100345.84;;;9.99;100.00
53889;BME280;41337;51.400;-2.342;2022-12-20T14:06:12;100323.34;;;9.73;100.00
53889;BME280;41337;51.400;-2.342;2022-12-20T14:11:19;100329.44;;;9.57;100.00
53889;BME280;41337;51.400;-2.342;2022-12-20T14:16:28;100338.97;;;9.57;100.00
53889;BME280;41337;51.400;-2.342;2022-12-20T14:21:30;100337.25;;;9.60;100.00
53889;BME280;41337;51.400;-2.342;2022-12-20T14:26:41;100325.09;;;9.53;100.00
53889;BME280;41337;51.400;-2.342;2022-12-20T14:31:47;100325.09;;;9.54;100.00
53889;BME280;41337;51.400;-2.342;2022-12-20T14:36:49;100321.66;;;9.42;100.00
53889;BME280;41337;51.400;-2.342;2022-12-20T14:47:23;100329.44;;;9.48;100.00
53889;BME280;41337;51.400;-2.342;2022-12-20T14:52:36;100327.69;;;9.56;100.00
53889;BME280;41337;51.400;-2.342;2022-12-20T14:57:47;100344.19;;;9.40;100.00
53889;BME280;41337;51.400;-2.342;2022-12-20T15:03:13;100342.44;;;9.26;100.00
53889;BME280;41337;51.400;-2.342;2022-12-20T15:08:25;100332.94;;;9.21;100.00
53889;BME280;41337;51.400;-2.342;2022-12-20T15:13:51;100338.09;;;9.07;100.00
53889;BME280;41337;51.400;-2.342;2022-12-20T15:18:59;100337.25;;;8.98;100.00
53889;BME280;41337;51.400;-2.342;2022-12-20T15:24:08;100331.16;;;8.92;100.00
53889;BME280;41337;51.400;-2.342;2022-12-20T15:29:42;100332.03;;;8.80;100.00
53889;BME280;41337;51.400;-2.342;2022-12-20T15:34:43;100345.00;;;8.75;100.00
53889;BME280;41337;51.400;-2.342;2022-12-20T15:39:44;100337.19;;;8.74;100.00
53889;BME280;41337;51.400;-2.342;2022-12-20T15:44:45;100344.09;;;8.66;100.00
53889;BME280;41337;51.400;-2.342;2022-12-20T15:49:46;100343.25;;;8.62;100.00
53889;BME280;41337;51.400;-2.342;2022-12-20T15:54:47;100361.38;;;8.54;100.00
53889;BME280;41337;51.400;-2.342;2022-12-20T15:59:51;100367.44;;;8.53;100.00
53889;BME280;41337;51.400;-2.342;2022-12-20T16:04:54;100375.13;;;8.35;100.00
53889;BME280;41337;51.400;-2.342;2022-12-20T16:09:54;100370.72;;;8.18;100.00
53889;BME280;41337;51.400;-2.342;2022-12-20T16:14:55;100377.59;;;8.12;100.00
53889;BME280;41337;51.400;-2.342;2022-12-20T16:19:56;100374.94;;;7.99;100.00
53889;BME280;41337;51.400;-2.342;2022-12-20T16:24:57;100379.25;;;7.97;100.00
53889;BME280;41337;51.400;-2.342;2022-12-20T16:29:58;100377.50;;;7.90;100.00
53889;BME280;41337;51.400;-2.342;2022-12-20T16:34:59;100393.88;;;7.84;100.00
53889;BME280;41337;51.400;-2.342;2022-12-20T16:40:00;100397.19;;;7.65;100.00
53889;BME280;41337;51.400;-2.342;2022-12-20T16:45:05;100383.28;;;7.50;100.00
53889;BME280;41337;51.400;-2.342;2022-12-20T16:50:07;100374.56;;;7.42;100.00
53889;BME280;41337;51.400;-2.342;2022-12-20T16:55:25;100376.22;;;7.34;100.00
53889;BME280;41337;51.400;-2.342;2022-12-20T17:00:26;100379.59;;;7.27;100.00
53889;BME280;41337;51.400;-2.342;2022-12-20T17:05:35;100383.03;;;7.23;100.00
53889;BME280;41337;51.400;-2.342;2022-12-20T17:10:36;100379.47;;;7.11;100.00
53889;BME280;41337;51.400;-2.342;2022-12-20T17:15:37;100389.84;;;7.11;100.00
53889;BME280;41337;51.400;-2.342;2022-12-20T17:20:38;100394.84;;;6.96;100.00
53889;BME280;41337;51.400;-2.342;2022-12-20T17:25:43;100407.75;;;6.91;100.00
53889;BME280;41337;51.400;-2.342;2022-12-20T17:30:44;100408.56;;;6.86;100.00
53889;BME280;41337;51.400;-2.342;2022-12-20T17:35:45;100409.25;;;6.71;100.00
53889;BME280;41337;51.400;-2.342;2022-12-20T17:40:45;100418.69;;;6.64;100.00
53889;BME280;41337;51.400;-2.342;2022-12-20T17:45:46;100416.84;;;6.57;100.00
53889;BME280;41337;51.400;-2.342;2022-12-20T17:50:47;100406.31;;;6.41;100.00
53889;BME280;41337;51.400;-2.342;2022-12-20T17:55:48;100407.84;;;6.25;100.00
53889;BME280;41337;51.400;-2.342;2022-12-20T18:00:49;100397.34;;;6.15;100.00
53889;BME280;41337;51.400;-2.342;2022-12-20T18:05:54;100395.38;;;5.97;100.00
53889;BME280;41337;51.400;-2.342;2022-12-20T18:10:57;100387.44;;;5.87;100.00
53889;BME280;41337;51.400;-2.342;2022-12-20T18:15:57;100391.50;;;5.72;100.00
53889;BME280;41337;51.400;-2.342;2022-12-20T18:21:06;100407.66;;;5.57;100.00
53889;BME280;41337;51.400;-2.342;2022-12-20T18:31:18;100407.09;;;5.24;100.00
53889;BME280;41337;51.400;-2.342;2022-12-20T18:36:25;100394.69;;;5.03;100.00
53889;BME280;41337;51.400;-2.342;2022-12-20T18:41:28;100396.13;;;4.87;100.00
53889;BME280;41337;51.400;-2.342;2022-12-20T18:46:32;100401.22;;;4.83;100.00
53889;BME280;41337;51.400;-2.342;2022-12-20T18:51:35;100395.81;;;4.72;100.00
53889;BME280;41337;51.400;-2.342;2022-12-20T18:56:37;100410.19;;;4.59;100.00
53889;BME280;41337;51.400;-2.342;2022-12-20T19:01:38;100411.63;;;4.43;100.00
53889;BME280;41337;51.400;-2.342;2022-12-20T19:06:43;100436.38;;;4.36;100.00
53889;BME280;41337;51.400;-2.342;2022-12-20T19:11:43;100445.44;;;4.17;100.00
53889;BME280;41337;51.400;-2.342;2022-12-20T19:16:44;100440.88;;;4.06;100.00
53889;BME280;41337;51.400;-2.342;2022-12-20T19:21:45;100432.16;;;3.99;100.00
53889;BME280;41337;51.400;-2.342;2022-12-20T19:26:46;100429.28;;;3.86;100.00
53889;BME280;41337;51.400;-2.342;2022-12-20T19:31:47;100441.09;;;3.78;100.00
53889;BME280;41337;51.400;-2.342;2022-12-20T19:36:48;100447.63;;;3.64;100.00
53889;BME280;41337;51.400;-2.342;2022-12-20T19:41:50;100436.13;;;3.51;100.00
53889;BME280;41337;51.400;-2.342;2022-12-20T19:46:54;100427.34;;;3.43;100.00
53889;BME280;41337;51.400;-2.342;2022-12-20T19:51:55;100432.25;;;3.32;100.00
53889;BME280;41337;51.400;-2.342;2022-12-20T19:56:56;100432.13;;;3.27;100.00
53889;BME280;41337;51.400;-2.342;2022-12-20T20:01:58;100441.28;;;3.16;100.00
53889;BME280;41337;51.400;-2.342;2022-12-20T20:06:58;100429.84;;;3.06;100.00
53889;BME280;41337;51.400;-2.342;2022-12-20T20:12:02;100423.84;;;3.06;100.00
53889;BME280;41337;51.400;-2.342;2022-12-20T20:17:06;100421.03;;;2.97;100.00
53889;BME280;41337;51.400;-2.342;2022-12-20T20:22:07;100419.25;;;2.96;100.00
53889;BME280;41337;51.400;-2.342;2022-12-20T20:27:16;100425.94;;;2.89;100.00
53889;BME280;41337;51.400;-2.342;2022-12-20T20:32:17;100415.44;;;2.80;100.00
53889;BME280;41337;51.400;-2.342;2022-12-20T20:37:18;100412.84;;;2.80;100.00
53889;BME280;41337;51.400;-2.342;2022-12-20T20:42:18;100410.25;;;2.78;100.00
53889;BME280;41337;51.400;-2.342;2022-12-20T20:47:19;100402.78;;;2.89;100.00
53889;BME280;41337;51.400;-2.342;2022-12-20T20:52:24;100410.28;;;3.13;100.00
53889;BME280;41337;51.400;-2.342;2022-12-20T20:57:25;100417.38;;;3.22;100.00
53889;BME280;41337;51.400;-2.342;2022-12-20T21:02:26;100431.81;;;3.48;100.00
53889;BME280;41337;51.400;-2.342;2022-12-20T21:07:27;100432.88;;;3.57;100.00
53889;BME280;41337;51.400;-2.342;2022-12-20T21:12:28;100433.03;;;3.64;100.00
53889;BME280;41337;51.400;-2.342;2022-12-20T21:17:32;100445.31;;;3.75;100.00
53889;BME280;41337;51.400;-2.342;2022-12-20T21:22:37;100460.59;;;3.67;100.00
53889;BME280;41337;51.400;-2.342;2022-12-20T21:27:38;100465.69;;;3.65;100.00
53889;BME280;41337;51.400;-2.342;2022-12-20T21:32:39;100455.59;;;3.73;100.00
53889;BME280;41337;51.400;-2.342;2022-12-20T21:37:40;100456.78;;;3.88;100.00
53889;BME280;41337;51.400;-2.342;2022-12-20T21:42:41;100458.41;;;3.84;100.00
53889;BME280;41337;51.400;-2.342;2022-12-20T21:47:42;100468.97;;;3.95;100.00
53889;BME280;41337;51.400;-2.342;2022-12-20T21:52:49;100452.16;;;4.11;100.00
53889;BME280;41337;51.400;-2.342;2022-12-20T21:57:49;100442.81;;;4.16;100.00
53889;BME280;41337;51.400;-2.342;2022-12-20T22:02:50;100452.38;;;4.21;100.00
53889;BME280;41337;51.400;-2.342;2022-12-20T22:07:51;100443.19;;;4.33;100.00
53889;BME280;41337;51.400;-2.342;2022-12-20T22:12:52;100429.59;;;4.40;100.00
53889;BME280;41337;51.400;-2.342;2022-12-20T22:17:53;100425.06;;;4.71;100.00
53889;BME280;41337;51.400;-2.342;2022-12-20T22:22:56;100413.22;;;4.81;100.00
53889;BME280;41337;51.400;-2.342;2022-12-20T22:28:01;100408.03;;;4.79;100.00
53889;BME280;41337;51.400;-2.342;2022-12-20T22:33:01;100405.50;;;4.84;100.00
53889;BME280;41337;51.400;-2.342;2022-12-20T22:38:04;100394.31;;;4.83;100.00
53889;BME280;41337;51.400;-2.342;2022-12-20T22:43:08;100383.19;;;4.86;100.00
53889;BME280;41337;51.400;-2.342;2022-12-20T22:48:09;100366.84;;;4.87;100.00
53889;BME280;41337;51.400;-2.342;2022-12-20T22:53:10;100354.09;;;4.94;100.00
53889;BME280;41337;51.400;-2.342;2022-12-20T22:58:12;100351.72;;;5.08;100.00
53889;BME280;41337;51.400;-2.342;2022-12-20T23:03:13;100366.59;;;5.20;100.00
53889;BME280;41337;51.400;-2.342;2022-12-20T23:08:14;100352.03;;;5.25;100.00
53889;BME280;41337;51.400;-2.342;2022-12-20T23:13:14;100348.63;;;5.28;100.00
53889;BME280;41337;51.400;-2.342;2022-12-20T23:18:40;100362.50;;;5.33;100.00
53889;BME280;41337;51.400;-2.342;2022-12-20T23:23:41;100349.59;;;5.36;100.00
53889;BME280;41337;51.400;-2.342;2022-12-20T23:28:42;100337.63;;;5.40;100.00
53889;BME280;41337;51.400;-2.342;2022-12-20T23:33:43;100313.56;;;5.44;100.00
53889;BME280;41337;51.400;-2.342;2022-12-20T23:38:44;100303.34;;;5.50;100.00
53889;BME280;41337;51.400;-2.342;2022-12-20T23:43:50;100291.38;;;5.58;100.00
53889;BME280;41337;51.400;-2.342;2022-12-20T23:48:51;100283.66;;;5.60;100.00
53889;BME280;41337;51.400;-2.342;2022-12-20T23:53:52;100283.72;;;5.64;100.00
53889;BME280;41337;51.400;-2.342;2022-12-20T23:58:55;100270.06;;;5.73;100.00
